createdAt,value
2022-11-19T00:00:15.275Z,-3.80
2022-11-19T00:02:46.779Z,-3.80
2022-11-19T00:05:15.583Z,-3.70
2022-11-19T00:07:43.773Z,-3.70
2022-11-19T00:10:13.511Z,-3.70
2022-11-19T00:12:56.364Z,-3.70
2022-11-19T00:15:25.050Z,-3.60
2022-11-19T00:17:53.649Z,-3.70
2022-11-19T00:20:22.284Z,-3.60
2022-11-19T00:22:53.658Z,-3.60
2022-11-19T00:25:25.105Z,-3.70
2022-11-19T00:27:53.745Z,-3.70
2022-11-19T00:30:46.830Z,-3.80
2022-11-19T00:33:14.587Z,-3.90
2022-11-19T00:35:43.115Z,-3.90
2022-11-19T00:38:11.530Z,-4.00
2022-11-19T00:40:44.466Z,-4.10
2022-11-19T00:43:36.168Z,-4.10
2022-11-19T00:46:05.721Z,-4.20
2022-11-19T00:48:37.161Z,-4.20
2022-11-19T00:51:05.813Z,-4.30
2022-11-19T00:53:34.589Z,-4.40
2022-11-19T00:56:05.943Z,-4.40
2022-11-19T00:58:38.383Z,-4.40
2022-11-19T01:01:07.940Z,-4.40
2022-11-19T01:03:46.491Z,-4.40
2022-11-19T01:06:19.605Z,-4.30
2022-11-19T01:08:48.633Z,-4.30
2022-11-19T01:11:21.104Z,-4.20
2022-11-19T01:13:50.045Z,-4.20
2022-11-19T01:16:21.122Z,-4.20
2022-11-19T01:18:50.827Z,-4.30
2022-11-19T01:21:23.799Z,-4.40
2022-11-19T01:23:52.875Z,-4.40
2022-11-19T01:26:23.710Z,-4.60
2022-11-19T01:28:52.241Z,-4.70
2022-11-19T01:31:23.427Z,-4.70
2022-11-19T01:33:52.020Z,-4.80
2022-11-19T01:36:22.160Z,-4.80
2022-11-19T01:38:51.909Z,-4.90
2022-11-19T01:41:24.385Z,-5.10
2022-11-19T01:43:54.821Z,-5.20
2022-11-19T01:46:25.638Z,-5.30
2022-11-19T01:49:03.674Z,-5.50
2022-11-19T01:51:36.929Z,-5.60
2022-11-19T01:54:12.819Z,-5.60
2022-11-19T01:56:44.579Z,-5.60
2022-11-19T02:02:22.838Z,-5.80
2022-11-19T02:04:57.460Z,-5.90
2022-11-19T02:07:29.895Z,-6.00
2022-11-19T02:10:04.568Z,-6.00
2022-11-19T02:12:49.515Z,-6.10
2022-11-19T02:15:28.450Z,-6.10
2022-11-19T02:18:24.984Z,-6.30
2022-11-19T02:21:08.579Z,-6.30
2022-11-19T02:24:11.804Z,-6.40
2022-11-19T02:27:31.130Z,-6.40
2022-11-19T02:30:39.742Z,-6.40
2022-11-19T02:34:02.908Z,-6.40
2022-11-19T02:36:49.851Z,-6.50
2022-11-19T02:39:27.931Z,-6.60
2022-11-19T02:42:03.353Z,-6.50
2022-11-19T02:44:55.162Z,-6.50
2022-11-19T02:47:36.128Z,-6.60
2022-11-19T02:50:22.768Z,-6.70
2022-11-19T02:52:55.091Z,-6.80
2022-11-19T02:55:26.122Z,-6.90
2022-11-19T02:58:00.142Z,-6.80
2022-11-19T03:00:57.942Z,-6.80
2022-11-19T03:03:53.577Z,-6.80
2022-11-19T03:06:39.931Z,-6.90
2022-11-19T03:09:17.913Z,-7.10
2022-11-19T03:11:53.948Z,-7.10
2022-11-19T03:14:43.329Z,-7.00
2022-11-19T03:17:18.381Z,-7.10
2022-11-19T03:19:52.829Z,-7.10
2022-11-19T03:22:26.525Z,-7.10
2022-11-19T03:25:00.774Z,-7.10
2022-11-19T03:27:38.883Z,-7.20
2022-11-19T03:30:12.811Z,-7.20
2022-11-19T03:32:46.966Z,-7.30
2022-11-19T03:35:20.701Z,-7.40
2022-11-19T03:37:52.453Z,-7.40
2022-11-19T03:40:25.701Z,-7.40
2022-11-19T03:42:56.490Z,-7.50
2022-11-19T03:45:29.741Z,-7.50
2022-11-19T03:47:59.462Z,-7.50
2022-11-19T03:50:37.497Z,-7.60
2022-11-19T03:53:39.237Z,-7.70
2022-11-19T03:56:18.316Z,-7.70
2022-11-19T03:58:50.693Z,-7.70
2022-11-19T04:01:19.984Z,-7.70
2022-11-19T04:04:20.993Z,-7.70
2022-11-19T04:07:01.643Z,-7.70
2022-11-19T04:09:36.947Z,-7.70
2022-11-19T04:12:28.434Z,-7.70
2022-11-19T04:15:36.903Z,-7.70
2022-11-19T04:18:26.017Z,-7.60
2022-11-19T04:21:32.975Z,-7.50
2022-11-19T04:24:07.671Z,-7.40
2022-11-19T04:26:39.683Z,-7.20
2022-11-19T04:29:13.283Z,-7.00
2022-11-19T04:31:41.756Z,-6.90
2022-11-19T04:34:12.828Z,-6.70
2022-11-19T04:36:43.002Z,-6.60
2022-11-19T04:39:13.542Z,-6.50
2022-11-19T04:41:42.958Z,-6.40
2022-11-19T04:44:15.022Z,-6.30
2022-11-19T04:46:57.946Z,-6.20
2022-11-19T04:49:26.316Z,-6.20
2022-11-19T04:51:55.290Z,-6.20
2022-11-19T04:54:25.276Z,-6.20
2022-11-19T04:56:54.642Z,-6.10
2022-11-19T04:59:23.662Z,-6.20
2022-11-19T05:01:56.227Z,-6.30
2022-11-19T05:04:27.548Z,-6.40
2022-11-19T05:06:56.117Z,-6.50
2022-11-19T05:09:29.670Z,-6.60
2022-11-19T05:11:58.441Z,-6.60
2022-11-19T05:14:32.450Z,-6.60
2022-11-19T05:17:01.055Z,-6.70
2022-11-19T05:19:42.121Z,-6.80
2022-11-19T05:22:13.433Z,-6.90
2022-11-19T05:24:43.182Z,-7.00
2022-11-19T05:27:11.737Z,-7.10
2022-11-19T05:29:40.137Z,-7.20
2022-11-19T05:32:09.157Z,-7.30
2022-11-19T05:34:38.077Z,-7.30
2022-11-19T05:37:06.416Z,-7.30
2022-11-19T05:39:36.194Z,-7.30
2022-11-19T05:42:06.443Z,-7.40
2022-11-19T05:44:34.764Z,-7.40
2022-11-19T05:47:03.887Z,-7.50
2022-11-19T05:49:35.075Z,-7.60
2022-11-19T05:52:03.681Z,-7.60
2022-11-19T05:54:32.660Z,-7.70
2022-11-19T05:57:05.753Z,-7.70
2022-11-19T05:59:44.201Z,-7.60
2022-11-19T06:02:25.513Z,-7.60
2022-11-19T06:05:18.793Z,-7.40
2022-11-19T06:07:54.008Z,-7.30
2022-11-19T06:10:25.194Z,-7.30
2022-11-19T06:13:21.374Z,-7.40
2022-11-19T06:15:52.507Z,-7.40
2022-11-19T06:18:30.086Z,-7.30
2022-11-19T06:21:11.979Z,-7.20
2022-11-19T06:23:51.813Z,-7.10
2022-11-19T06:26:27.543Z,-7.00
2022-11-19T06:29:21.554Z,-6.90
2022-11-19T06:31:58.989Z,-6.80
2022-11-19T06:34:30.770Z,-6.80
2022-11-19T06:37:00.342Z,-6.70
2022-11-19T06:39:28.841Z,-6.60
2022-11-19T06:42:17.726Z,-6.50
2022-11-19T06:44:50.299Z,-6.40
2022-11-19T06:47:18.773Z,-6.20
2022-11-19T06:49:55.709Z,-6.10
2022-11-19T06:52:24.130Z,-6.00
2022-11-19T06:54:55.660Z,-5.90
2022-11-19T06:57:30.839Z,-5.80
2022-11-19T07:00:00.874Z,-5.70
2022-11-19T07:02:32.561Z,-5.60
2022-11-19T07:05:00.962Z,-5.40
2022-11-19T07:07:32.787Z,-5.30
2022-11-19T07:10:17.721Z,-5.20
2022-11-19T07:13:15.814Z,-5.10
2022-11-19T07:15:48.407Z,-5.00
2022-11-19T07:18:17.207Z,-4.90
2022-11-19T07:20:47.390Z,-4.90
2022-11-19T07:23:16.230Z,-4.70
2022-11-19T07:25:44.671Z,-4.70
2022-11-19T07:28:13.177Z,-4.70
2022-11-19T07:30:45.957Z,-4.50
2022-11-19T07:33:17.729Z,-4.50
2022-11-19T07:35:46.262Z,-4.40
2022-11-19T07:38:14.771Z,-4.30
2022-11-19T07:40:43.102Z,-4.30
2022-11-19T07:43:10.353Z,-4.20
2022-11-19T07:45:39.138Z,-4.10
2022-11-19T07:48:09.100Z,-4.20
2022-11-19T07:50:37.397Z,-4.20
2022-11-19T07:53:07.034Z,-4.20
2022-11-19T07:55:35.306Z,-4.20
2022-11-19T07:58:03.821Z,-4.10
2022-11-19T08:00:32.406Z,-4.00
2022-11-19T08:03:00.670Z,-3.80
2022-11-19T08:05:30.595Z,-3.70
2022-11-19T08:07:58.951Z,-3.60
2022-11-19T08:10:31.611Z,-3.60
2022-11-19T08:13:04.382Z,-3.50
2022-11-19T08:15:33.841Z,-3.50
2022-11-19T08:18:13.058Z,-3.50
2022-11-19T08:20:43.730Z,-3.50
2022-11-19T08:23:12.545Z,-3.50
2022-11-19T08:28:36.043Z,-3.30
2022-11-19T08:31:08.299Z,-3.30
2022-11-19T08:33:37.190Z,-3.30
2022-11-19T08:36:07.271Z,-3.30
2022-11-19T08:38:38.576Z,-3.30
2022-11-19T08:41:25.310Z,-3.30
2022-11-19T08:43:53.761Z,-3.50
2022-11-19T08:46:22.035Z,-3.50
2022-11-19T08:48:53.423Z,-3.50
2022-11-19T08:51:23.159Z,-3.50
2022-11-19T08:53:55.947Z,-3.50
2022-11-19T08:56:24.846Z,-3.50
2022-11-19T08:58:58.469Z,-3.50
2022-11-19T09:01:34.891Z,-3.50
2022-11-19T09:04:03.249Z,-3.60
2022-11-19T09:06:35.591Z,-3.50
2022-11-19T09:09:04.768Z,-3.60
2022-11-19T09:11:36.214Z,-3.70
2022-11-19T09:14:06.749Z,-3.70
2022-11-19T09:16:35.190Z,-3.70
2022-11-19T09:19:03.413Z,-3.70
2022-11-19T09:21:33.210Z,-3.70
2022-11-19T09:24:01.481Z,-3.70
2022-11-19T09:26:34.028Z,-3.60
2022-11-19T09:29:29.882Z,-3.60
2022-11-19T09:31:58.730Z,-3.60
2022-11-19T09:34:27.221Z,-3.60
2022-11-19T09:36:58.405Z,-3.60
2022-11-19T09:39:26.810Z,-3.50
2022-11-19T09:42:02.679Z,-3.50
2022-11-19T09:44:46.955Z,-3.50
2022-11-19T09:47:30.102Z,-3.50
2022-11-19T09:50:07.920Z,-3.40
2022-11-19T09:52:44.223Z,-3.40
2022-11-19T09:55:19.262Z,-3.40
2022-11-19T09:57:52.036Z,-3.20
2022-11-19T10:00:33.229Z,-3.30
2022-11-19T10:03:12.384Z,-3.20
2022-11-19T10:06:03.410Z,-3.10
2022-11-19T10:08:44.863Z,-3.00
2022-11-19T10:11:29.269Z,-3.00
2022-11-19T10:14:06.069Z,-2.90
2022-11-19T10:16:45.045Z,-2.80
2022-11-19T10:19:24.167Z,-2.80
2022-11-19T10:22:00.115Z,-2.70
2022-11-19T10:24:39.203Z,-2.70
2022-11-19T10:27:30.952Z,-2.60
2022-11-19T10:30:03.732Z,-2.60
2022-11-19T10:32:36.857Z,-2.50
2022-11-19T10:35:16.173Z,-2.40
2022-11-19T10:38:04.401Z,-2.40
2022-11-19T10:40:40.805Z,-2.30
2022-11-19T10:43:22.204Z,-2.30
2022-11-19T10:46:04.913Z,-2.20
2022-11-19T10:48:40.777Z,-2.20
2022-11-19T10:51:15.485Z,-2.20
2022-11-19T10:53:50.016Z,-2.20
2022-11-19T10:56:23.430Z,-2.10
2022-11-19T10:58:55.751Z,-2.00
2022-11-19T11:01:31.344Z,-2.10
2022-11-19T11:04:08.016Z,-2.00
2022-11-19T11:06:52.913Z,-2.00
2022-11-19T11:09:35.107Z,-1.90
2022-11-19T11:12:29.777Z,-1.90
2022-11-19T11:15:16.043Z,-1.90
2022-11-19T11:17:46.823Z,-1.90
2022-11-19T11:20:27.297Z,-1.90
2022-11-19T11:23:15.145Z,-1.70
2022-11-19T11:25:53.630Z,-1.70
2022-11-19T11:28:25.421Z,-1.60
2022-11-19T11:30:55.455Z,-1.50
2022-11-19T11:33:43.911Z,-1.50
2022-11-19T11:36:15.539Z,-1.50
2022-11-19T11:38:45.913Z,-1.40
2022-11-19T11:44:17.355Z,-1.50
2022-11-19T11:46:47.954Z,-1.40
2022-11-19T11:49:29.258Z,-1.40
2022-11-19T11:52:15.598Z,-1.40
2022-11-19T11:54:57.600Z,-1.40
2022-11-19T11:57:28.100Z,-1.40
2022-11-19T11:59:58.513Z,-1.40
2022-11-19T12:02:34.694Z,-1.40
2022-11-19T12:05:05.507Z,-1.40
2022-11-19T12:08:03.610Z,-1.40
2022-11-19T12:10:55.861Z,-1.50
2022-11-19T12:14:15.197Z,-1.50
2022-11-19T12:17:04.512Z,-1.50
2022-11-19T12:19:49.307Z,-1.50
2022-11-19T12:22:28.019Z,-1.50
2022-11-19T12:25:24.898Z,-1.50
2022-11-19T12:28:16.292Z,-1.50
2022-11-19T12:30:59.682Z,-1.50
2022-11-19T12:33:51.824Z,-1.50
2022-11-19T12:36:26.933Z,-1.50
2022-11-19T12:39:02.059Z,-1.50
2022-11-19T12:41:50.738Z,-1.50
2022-11-19T12:44:29.835Z,-1.50
2022-11-19T12:47:06.005Z,-1.40
2022-11-19T12:50:09.638Z,-1.40
2022-11-19T12:53:01.114Z,-1.40
2022-11-19T12:55:39.690Z,-1.40
2022-11-19T12:58:19.906Z,-1.40
2022-11-19T13:00:53.476Z,-1.40
2022-11-19T13:03:26.926Z,-1.40
2022-11-19T13:06:01.861Z,-1.40
2022-11-19T13:08:35.337Z,-1.50
2022-11-19T13:11:09.592Z,-1.50
2022-11-19T13:13:45.698Z,-1.60
2022-11-19T13:16:17.634Z,-1.70
2022-11-19T13:18:52.652Z,-1.70
2022-11-19T13:21:31.438Z,-1.70
2022-11-19T13:24:08.913Z,-1.70
2022-11-19T13:26:40.502Z,-1.70
2022-11-19T13:29:24.158Z,-1.80
2022-11-19T13:32:15.701Z,-1.90
2022-11-19T13:34:51.523Z,-1.90
2022-11-19T13:37:33.241Z,-1.80
2022-11-19T13:40:06.377Z,-1.90
2022-11-19T13:43:25.097Z,-1.90
2022-11-19T13:46:07.008Z,-2.00
2022-11-19T13:48:48.497Z,-2.00
2022-11-19T13:51:56.670Z,-2.10
2022-11-19T13:54:30.383Z,-2.10
2022-11-19T13:56:59.519Z,-2.10
2022-11-19T13:59:32.719Z,-2.10
2022-11-19T14:02:13.380Z,-2.20
2022-11-19T14:05:04.800Z,-2.30
2022-11-19T14:07:57.888Z,-2.30
2022-11-19T14:10:33.308Z,-2.40
2022-11-19T14:13:34.520Z,-2.50
2022-11-19T14:16:38.251Z,-2.60
2022-11-19T14:19:43.847Z,-2.60
2022-11-19T14:22:54.186Z,-2.70
2022-11-19T14:26:01.301Z,-2.70
2022-11-19T14:29:05.532Z,-2.60
2022-11-19T14:31:34.102Z,-2.70
2022-11-19T14:34:05.616Z,-2.70
2022-11-19T14:36:46.227Z,-2.80
2022-11-19T14:39:19.228Z,-3.00
2022-11-19T14:42:09.239Z,-3.10
2022-11-19T14:44:37.886Z,-3.20
2022-11-19T14:47:40.909Z,-3.20
2022-11-19T14:50:27.408Z,-3.40
2022-11-19T14:52:57.639Z,-3.50
2022-11-19T14:55:28.473Z,-3.60
2022-11-19T14:58:30.652Z,-3.60
2022-11-19T15:01:08.580Z,-3.60
2022-11-19T15:03:37.976Z,-3.70
2022-11-19T15:06:08.963Z,-3.70
2022-11-19T15:08:51.485Z,-3.70
2022-11-19T15:11:46.304Z,-3.80
2022-11-19T15:15:02.633Z,-3.80
2022-11-19T15:17:31.873Z,-3.70
2022-11-19T15:20:21.029Z,-3.70
2022-11-19T15:22:58.736Z,-3.70
2022-11-19T15:25:34.063Z,-3.90
2022-11-19T15:28:24.759Z,-4.00
2022-11-19T15:31:25.194Z,-4.10
2022-11-19T15:34:11.770Z,-4.20
2022-11-19T15:36:45.585Z,-4.40
2022-11-19T15:39:18.930Z,-4.50
2022-11-19T15:42:07.811Z,-4.60
2022-11-19T15:44:42.361Z,-4.60
2022-11-19T15:47:19.605Z,-4.80
2022-11-19T15:49:50.176Z,-4.80
2022-11-19T15:52:26.994Z,-4.80
2022-11-19T15:55:17.274Z,-4.70
2022-11-19T15:57:52.408Z,-4.50
2022-11-19T16:00:33.561Z,-4.30
2022-11-19T16:03:14.514Z,-4.10
2022-11-19T16:05:50.222Z,-4.00
2022-11-19T16:08:19.266Z,-3.90
2022-11-19T16:11:19.979Z,-3.80
2022-11-19T16:14:21.215Z,-3.90
2022-11-19T16:17:10.686Z,-3.80
2022-11-19T16:19:44.870Z,-3.80
2022-11-19T16:22:20.190Z,-3.80
2022-11-19T16:25:10.637Z,-3.90
2022-11-19T16:27:45.168Z,-4.00
2022-11-19T16:30:50.910Z,-4.10
2022-11-19T16:37:20.517Z,-4.10
2022-11-19T16:39:53.148Z,-4.10
2022-11-19T16:42:28.415Z,-4.10
2022-11-19T16:45:00.973Z,-4.10
2022-11-19T16:47:33.424Z,-4.10
2022-11-19T16:50:27.030Z,-4.00
2022-11-19T16:53:04.426Z,-4.10
2022-11-19T16:56:05.515Z,-4.20
2022-11-19T16:58:42.965Z,-4.40
2022-11-19T17:01:14.786Z,-4.40
2022-11-19T17:03:50.247Z,-4.40
2022-11-19T17:06:26.112Z,-4.40
2022-11-19T17:09:01.392Z,-4.40
2022-11-19T17:12:11.156Z,-4.50
2022-11-19T17:14:56.253Z,-4.50
2022-11-19T17:17:41.876Z,-4.60
2022-11-19T17:21:03.382Z,-4.60
2022-11-19T17:24:04.247Z,-4.70
2022-11-19T17:27:19.711Z,-4.60
2022-11-19T17:30:26.369Z,-4.60
2022-11-19T17:33:01.596Z,-4.70
2022-11-19T17:35:38.146Z,-4.70
2022-11-19T17:38:43.584Z,-4.70
2022-11-19T17:41:56.958Z,-4.70
2022-11-19T17:44:39.451Z,-4.70
2022-11-19T17:47:22.831Z,-4.70
2022-11-19T17:49:54.721Z,-4.60
2022-11-19T17:52:29.202Z,-4.70
2022-11-19T17:55:02.290Z,-4.80
2022-11-19T17:58:00.647Z,-4.90
2022-11-19T18:00:34.156Z,-4.90
2022-11-19T18:03:03.382Z,-5.00
2022-11-19T18:05:38.018Z,-5.00
2022-11-19T18:08:07.026Z,-4.90
2022-11-19T18:10:38.307Z,-5.00
2022-11-19T18:13:07.253Z,-5.00
2022-11-19T18:18:25.552Z,-5.00
2022-11-19T18:20:58.976Z,-5.00
2022-11-19T18:23:30.518Z,-5.00
2022-11-19T18:25:59.817Z,-5.10
2022-11-19T18:28:28.152Z,-5.10
2022-11-19T18:30:59.654Z,-5.20
2022-11-19T18:33:28.725Z,-5.20
2022-11-19T18:35:57.314Z,-5.30
2022-11-19T18:38:26.310Z,-5.30
2022-11-19T18:40:58.123Z,-5.30
2022-11-19T18:43:44.090Z,-5.30
2022-11-19T18:46:14.176Z,-5.30
2022-11-19T18:48:45.717Z,-5.40
2022-11-19T18:51:14.415Z,-5.40
2022-11-19T18:53:45.574Z,-5.40
2022-11-19T18:56:16.120Z,-5.40
2022-11-19T18:58:45.377Z,-5.40
2022-11-19T19:01:16.655Z,-5.40
2022-11-19T19:03:46.527Z,-5.40
2022-11-19T19:06:25.094Z,-5.50
2022-11-19T19:09:21.999Z,-5.50
2022-11-19T19:12:21.964Z,-5.40
2022-11-19T19:14:52.131Z,-5.40
2022-11-19T19:17:22.969Z,-5.30
2022-11-19T19:19:55.423Z,-5.20
2022-11-19T19:22:35.090Z,-5.20
2022-11-19T19:25:05.222Z,-5.20
2022-11-19T19:27:37.201Z,-5.20
2022-11-19T19:30:13.248Z,-5.20
2022-11-19T19:32:45.984Z,-5.20
2022-11-19T19:35:14.823Z,-5.20
2022-11-19T19:37:46.864Z,-5.20
2022-11-19T19:40:21.894Z,-5.20
2022-11-19T19:42:50.768Z,-5.30
2022-11-19T19:45:25.439Z,-5.30
2022-11-19T19:47:55.490Z,-5.30
2022-11-19T19:50:27.587Z,-5.30
2022-11-19T19:52:58.193Z,-5.30
2022-11-19T19:55:26.814Z,-5.30
2022-11-19T19:58:07.649Z,-5.30
2022-11-19T20:00:36.506Z,-5.40
2022-11-19T20:03:07.311Z,-5.40
2022-11-19T20:05:41.171Z,-5.40
2022-11-19T20:08:09.710Z,-5.40
2022-11-19T20:10:40.575Z,-5.30
2022-11-19T20:13:29.611Z,-5.30
2022-11-19T20:16:00.302Z,-5.30
2022-11-19T20:18:32.004Z,-5.30
2022-11-19T20:21:04.232Z,-5.30
2022-11-19T20:23:32.810Z,-5.30
2022-11-19T20:26:06.121Z,-5.40
2022-11-19T20:28:35.507Z,-5.50
2022-11-19T20:31:08.442Z,-5.60
2022-11-19T20:33:39.114Z,-5.60
2022-11-19T20:36:11.862Z,-5.60
2022-11-19T20:38:42.802Z,-5.60
2022-11-19T20:41:33.803Z,-5.60
2022-11-19T20:44:21.179Z,-5.50
2022-11-19T20:46:52.994Z,-5.50
2022-11-19T20:49:27.701Z,-5.60
2022-11-19T20:51:56.768Z,-5.70
2022-11-19T20:54:45.195Z,-5.80
2022-11-19T20:57:38.383Z,-5.80
2022-11-19T21:00:15.544Z,-5.80
2022-11-19T21:02:44.437Z,-5.80
2022-11-19T21:05:14.501Z,-5.80
2022-11-19T21:07:43.453Z,-5.80
2022-11-19T21:10:22.937Z,-5.80
2022-11-19T21:13:02.268Z,-5.80
2022-11-19T21:15:51.619Z,-5.70
2022-11-19T21:18:24.427Z,-5.60
2022-11-19T21:21:12.948Z,-5.60
2022-11-19T21:24:06.506Z,-5.40
2022-11-19T21:26:36.506Z,-5.40
2022-11-19T21:29:06.757Z,-5.30
2022-11-19T21:31:42.522Z,-5.30
2022-11-19T21:34:12.889Z,-5.40
2022-11-19T21:36:46.859Z,-5.50
2022-11-19T21:39:23.252Z,-5.60
2022-11-19T21:41:54.994Z,-5.70
2022-11-19T21:44:26.998Z,-5.70
2022-11-19T21:46:55.790Z,-5.80
2022-11-19T21:49:27.970Z,-5.80
2022-11-19T21:51:57.969Z,-5.80
2022-11-19T21:54:29.837Z,-5.90
2022-11-19T21:57:11.280Z,-5.90
2022-11-19T21:59:43.143Z,-5.70
2022-11-19T22:02:12.738Z,-5.70
2022-11-19T22:04:42.170Z,-5.60
2022-11-19T22:07:15.645Z,-5.60
2022-11-19T22:09:44.464Z,-5.70
2022-11-19T22:12:13.291Z,-5.80
2022-11-19T22:14:42.183Z,-5.80
2022-11-19T22:17:18.763Z,-5.90
2022-11-19T22:19:47.707Z,-6.00
2022-11-19T22:22:22.851Z,-6.00
2022-11-19T22:24:51.433Z,-6.00
2022-11-19T22:27:19.895Z,-6.10
2022-11-19T22:29:51.161Z,-6.20
2022-11-19T22:32:31.537Z,-6.20
2022-11-19T22:34:59.828Z,-6.40
2022-11-19T22:37:42.645Z,-6.40
2022-11-19T22:40:14.639Z,-6.40
2022-11-19T22:42:42.902Z,-6.60
2022-11-19T22:45:11.819Z,-6.70
2022-11-19T22:47:44.514Z,-6.70
2022-11-19T22:50:28.281Z,-6.70
2022-11-19T22:53:03.754Z,-6.80
2022-11-19T22:55:36.127Z,-6.90
2022-11-19T22:58:15.377Z,-7.00
2022-11-19T23:00:49.013Z,-6.90
2022-11-19T23:03:29.302Z,-7.00
2022-11-19T23:05:59.418Z,-7.10
2022-11-19T23:08:33.166Z,-7.20
2022-11-19T23:11:03.622Z,-7.30
2022-11-19T23:13:39.138Z,-7.30
2022-11-19T23:16:13.064Z,-7.20
2022-11-19T23:18:42.829Z,-7.20
2022-11-19T23:21:13.671Z,-7.10
2022-11-19T23:23:44.202Z,-7.00
2022-11-19T23:26:15.942Z,-6.90
2022-11-19T23:28:45.755Z,-6.80
2022-11-19T23:31:16.905Z,-6.80
2022-11-19T23:33:46.692Z,-6.70
2022-11-19T23:36:21.465Z,-6.70
2022-11-19T23:38:56.019Z,-6.70
2022-11-19T23:41:28.053Z,-6.60
2022-11-19T23:43:57.352Z,-6.70
2022-11-19T23:46:28.075Z,-6.80
2022-11-19T23:48:58.086Z,-6.90
2022-11-19T23:51:29.616Z,-6.90
2022-11-19T23:53:59.912Z,-7.00
2022-11-19T23:56:46.348Z,-7.00
2022-11-19T23:59:14.770Z,-7.00
